createdAt,value
2022-10-16T00:01:17.667Z,1003.5
2022-10-16T00:04:17.669Z,1003.6
2022-10-16T00:07:17.696Z,1003.6
2022-10-16T00:10:17.677Z,1003.5
2022-10-16T00:13:17.691Z,1003.5
2022-10-16T00:16:17.684Z,1003.5
2022-10-16T00:19:17.684Z,1003.5
2022-10-16T00:22:17.690Z,1003.5
2022-10-16T00:25:17.716Z,1003.5
2022-10-16T00:28:17.708Z,1003.5
2022-10-16T00:31:17.721Z,1003.5
2022-10-16T00:34:17.700Z,1003.6
2022-10-16T00:37:17.701Z,1003.6
2022-10-16T00:40:17.700Z,1003.6
2022-10-16T00:43:17.734Z,1003.6
2022-10-16T00:46:17.711Z,1003.7
2022-10-16T00:49:17.703Z,1003.7
2022-10-16T00:52:17.709Z,1003.7
2022-10-16T00:55:17.725Z,1003.7
2022-10-16T00:58:17.759Z,1003.6
2022-10-16T01:01:17.881Z,1003.8
2022-10-16T01:04:17.769Z,1003.8
2022-10-16T01:07:17.779Z,1003.8
2022-10-16T01:10:17.798Z,1004
2022-10-16T01:13:17.811Z,1003.9
2022-10-16T01:16:17.810Z,1003.9
2022-10-16T01:19:17.843Z,1003.9
2022-10-16T01:22:17.828Z,1004
2022-10-16T01:25:17.842Z,1004
2022-10-16T01:28:18.058Z,1004
2022-10-16T01:31:17.880Z,1003.9
2022-10-16T01:34:17.893Z,1003.9
2022-10-16T01:37:17.927Z,1003.9
2022-10-16T01:40:17.925Z,1004
2022-10-16T01:43:17.937Z,1003.8
2022-10-16T01:46:17.929Z,1003.7
2022-10-16T01:49:17.946Z,1003.9
2022-10-16T01:52:17.963Z,1003.9
2022-10-16T01:55:18.005Z,1003.9
2022-10-16T01:58:18.008Z,1003.9
2022-10-16T02:01:17.997Z,1004
2022-10-16T02:04:18.001Z,1004
2022-10-16T02:07:18.014Z,1004
2022-10-16T02:10:18.048Z,1004
2022-10-16T02:13:18.057Z,1004
2022-10-16T02:16:18.041Z,1004.1
2022-10-16T02:19:18.045Z,1004.2
2022-10-16T02:22:18.052Z,1004.2
2022-10-16T02:25:18.059Z,1004
2022-10-16T02:28:18.173Z,1004.2
2022-10-16T02:31:18.117Z,1004.3
2022-10-16T02:34:18.090Z,1004.2
2022-10-16T02:37:18.093Z,1004.2
2022-10-16T02:40:19.229Z,1004.3
2022-10-16T02:43:18.131Z,1004.4
2022-10-16T02:46:18.141Z,1004.5
2022-10-16T02:49:18.167Z,1004.5
2022-10-16T02:52:18.155Z,1004.5
2022-10-16T02:55:18.161Z,1004.6
2022-10-16T02:58:18.177Z,1004.4
2022-10-16T03:01:18.231Z,1004.6
2022-10-16T03:04:18.187Z,1004.6
2022-10-16T03:07:18.222Z,1004.5
2022-10-16T03:10:18.207Z,1004.4
2022-10-16T03:13:18.232Z,1004.4
2022-10-16T03:16:18.241Z,1004.3
2022-10-16T03:19:18.230Z,1004.5
2022-10-16T03:22:18.245Z,1004.5
2022-10-16T03:25:18.285Z,1004.5
2022-10-16T03:28:18.463Z,1004.5
2022-10-16T03:31:18.288Z,1004.5
2022-10-16T03:34:18.297Z,1004.5
2022-10-16T03:37:18.304Z,1004.5
2022-10-16T03:40:18.322Z,1004.5
2022-10-16T03:43:18.423Z,1004.5
2022-10-16T03:46:18.355Z,1004.6
2022-10-16T03:49:18.356Z,1004.5
2022-10-16T03:55:18.374Z,1004.5
2022-10-16T03:58:18.395Z,1004.5
2022-10-16T04:01:18.631Z,1004.5
2022-10-16T04:04:18.406Z,1004.6
2022-10-16T04:07:18.419Z,1004.7
2022-10-16T04:10:18.422Z,1004.7
2022-10-16T04:16:18.462Z,1004.7
2022-10-16T04:19:18.492Z,1004.7
2022-10-16T04:22:18.543Z,1004.6
2022-10-16T04:25:18.516Z,1004.6
2022-10-16T04:28:18.611Z,1004.7
2022-10-16T04:31:18.556Z,1004.7
2022-10-16T04:34:18.556Z,1004.6
2022-10-16T04:37:18.597Z,1004.6
2022-10-16T04:40:18.585Z,1004.6
2022-10-16T04:43:18.641Z,1004.6
2022-10-16T04:46:18.608Z,1004.6
2022-10-16T04:49:18.623Z,1004.7
2022-10-16T04:52:18.629Z,1004.7
2022-10-16T04:55:18.669Z,1004.7
2022-10-16T04:58:18.672Z,1004.9
2022-10-16T05:01:18.840Z,1004.9
2022-10-16T05:04:18.689Z,1004.9
2022-10-16T05:07:18.705Z,1004.8
2022-10-16T05:10:18.721Z,1004.7
2022-10-16T05:13:18.771Z,1004.8
2022-10-16T05:16:18.762Z,1004.8
2022-10-16T05:19:27.596Z,1004.7
2022-10-16T05:22:18.783Z,1004.8
2022-10-16T05:25:18.805Z,1004.8
2022-10-16T05:28:18.850Z,1005.1
2022-10-16T05:31:18.862Z,1005
2022-10-16T05:34:18.835Z,1005.2
2022-10-16T05:37:18.844Z,1005.2
2022-10-16T05:40:18.858Z,1005.2
2022-10-16T05:43:18.887Z,1005
2022-10-16T05:46:18.911Z,1005.1
2022-10-16T05:49:18.926Z,1005.2
2022-10-16T05:52:18.903Z,1005.2
2022-10-16T05:55:18.909Z,1005.4
2022-10-16T05:58:18.915Z,1005.2
2022-10-16T06:01:19.073Z,1005.3
2022-10-16T06:04:18.905Z,1005.4
2022-10-16T06:07:18.959Z,1005.5
2022-10-16T06:10:18.947Z,1005.5
2022-10-16T06:13:18.945Z,1005.5
2022-10-16T06:16:18.949Z,1005.6
2022-10-16T06:19:18.935Z,1005.6
2022-10-16T06:22:18.936Z,1005.7
2022-10-16T06:25:18.964Z,1005.7
2022-10-16T06:28:19.034Z,1005.6
2022-10-16T06:31:18.952Z,1005.8
2022-10-16T06:34:18.944Z,1005.5
2022-10-16T06:37:18.941Z,1005.7
2022-10-16T06:40:18.943Z,1005.6
2022-10-16T06:43:18.978Z,1005.6
2022-10-16T06:46:18.963Z,1005.7
2022-10-16T06:49:18.954Z,1005.8
2022-10-16T06:52:18.978Z,1006
2022-10-16T06:55:18.962Z,1006.1
2022-10-16T06:58:18.985Z,1006.1
2022-10-16T07:01:19.011Z,1006.1
2022-10-16T07:04:18.973Z,1006.1
2022-10-16T07:07:18.974Z,1006.1
2022-10-16T07:10:18.982Z,1006.1
2022-10-16T07:13:18.995Z,1006.2
2022-10-16T07:16:19.001Z,1006.3
2022-10-16T07:19:19.011Z,1006.3
2022-10-16T07:22:18.994Z,1006.2
2022-10-16T07:25:18.997Z,1006.4
2022-10-16T07:28:19.091Z,1006.2
2022-10-16T07:31:19.003Z,1006.3
2022-10-16T07:34:18.999Z,1006.3
2022-10-16T07:37:19.015Z,1006.3
2022-10-16T07:40:18.997Z,1006.3
2022-10-16T07:43:19.023Z,1006.4
2022-10-16T07:46:19.028Z,1006.5
2022-10-16T07:49:19.057Z,1006.5
2022-10-16T07:52:19.015Z,1006.5
2022-10-16T07:55:19.043Z,1006.6
2022-10-16T07:58:19.040Z,1006.5
2022-10-16T08:01:19.174Z,1006.5
2022-10-16T08:04:19.030Z,1006.5
2022-10-16T08:07:19.035Z,1006.6
2022-10-16T08:10:19.034Z,1006.6
2022-10-16T08:13:19.083Z,1006.5
2022-10-16T08:16:19.067Z,1006.5
2022-10-16T08:19:19.061Z,1006.6
2022-10-16T08:22:19.066Z,1006.7
2022-10-16T08:25:19.070Z,1006.7
2022-10-16T08:28:19.161Z,1006.8
2022-10-16T08:31:19.144Z,1006.8
2022-10-16T08:34:19.079Z,1006.8
2022-10-16T08:37:19.090Z,1006.8
2022-10-16T08:40:19.130Z,1006.8
2022-10-16T08:43:19.107Z,1007
2022-10-16T08:46:19.118Z,1007
2022-10-16T08:49:19.132Z,1007.1
2022-10-16T08:52:19.111Z,1007
2022-10-16T08:55:19.120Z,1007
2022-10-16T08:58:19.133Z,1007
2022-10-16T09:01:19.196Z,1007.1
2022-10-16T09:04:19.134Z,1007.1
2022-10-16T09:07:19.160Z,1007.1
2022-10-16T09:10:19.213Z,1007.2
2022-10-16T09:13:19.155Z,1007.2
2022-10-16T09:16:19.163Z,1007.2
2022-10-16T09:19:19.154Z,1007.2
2022-10-16T09:22:19.169Z,1007.3
2022-10-16T09:25:19.192Z,1007.3
2022-10-16T09:28:19.310Z,1007.3
2022-10-16T09:31:19.188Z,1007.2
2022-10-16T09:34:19.184Z,1007.3
2022-10-16T09:37:19.192Z,1007.3
2022-10-16T09:40:19.193Z,1007.2
2022-10-16T09:43:19.230Z,1007.3
2022-10-16T09:46:19.210Z,1007.4
2022-10-16T09:49:19.217Z,1007.4
2022-10-16T09:52:19.228Z,1007.5
2022-10-16T09:55:19.227Z,1007.5
2022-10-16T09:58:19.245Z,1007.5
2022-10-16T10:01:19.281Z,1007.6
2022-10-16T10:04:19.246Z,1007.6
2022-10-16T10:07:19.258Z,1007.7
2022-10-16T10:10:19.256Z,1007.7
2022-10-16T10:13:19.273Z,1007.6
2022-10-16T10:16:19.289Z,1007.6
2022-10-16T10:19:19.314Z,1007.6
2022-10-16T10:22:19.288Z,1007.7
2022-10-16T10:25:19.299Z,1007.7
2022-10-16T10:28:19.431Z,1007.7
2022-10-16T10:31:19.329Z,1007.7
2022-10-16T10:34:19.317Z,1007.7
2022-10-16T10:37:19.361Z,1007.7
2022-10-16T10:40:19.334Z,1007.8
2022-10-16T10:43:19.355Z,1007.6
2022-10-16T10:46:19.358Z,1007.6
2022-10-16T10:49:19.365Z,1007.8
2022-10-16T10:52:19.369Z,1007.8
2022-10-16T10:55:19.398Z,1007.8
2022-10-16T10:58:19.395Z,1007.8
2022-10-16T11:01:19.427Z,1007.8
2022-10-16T11:04:19.399Z,1007.8
2022-10-16T11:07:19.414Z,1007.7
2022-10-16T11:10:19.426Z,1007.9
2022-10-16T11:13:19.471Z,1007.9
2022-10-16T11:16:21.293Z,1007.9
2022-10-16T11:19:19.459Z,1007.9
2022-10-16T11:22:19.457Z,1008
2022-10-16T11:25:19.472Z,1008.1
2022-10-16T11:28:19.540Z,1008
2022-10-16T11:31:19.531Z,1008
2022-10-16T11:34:19.502Z,1008.1
2022-10-16T11:37:19.514Z,1008.2
2022-10-16T11:40:19.530Z,1008.1
2022-10-16T11:43:19.549Z,1008.1
2022-10-16T11:46:19.561Z,1008.1
2022-10-16T11:49:19.578Z,1008.2
2022-10-16T11:52:19.562Z,1008.3
2022-10-16T11:55:19.562Z,1008.2
2022-10-16T11:58:19.656Z,1008.1
2022-10-16T12:01:19.647Z,1008.1
2022-10-16T12:04:19.596Z,1008.2
2022-10-16T12:07:19.628Z,1008.3
2022-10-16T12:10:22.478Z,1008.4
2022-10-16T12:13:19.643Z,1008.4
2022-10-16T12:16:19.648Z,1008.3
2022-10-16T12:19:19.651Z,1008.4
2022-10-16T12:22:19.658Z,1008.3
2022-10-16T12:25:19.692Z,1008.5
2022-10-16T12:28:19.789Z,1008.5
2022-10-16T12:31:19.703Z,1008.6
2022-10-16T12:34:19.703Z,1008.5
2022-10-16T12:37:19.720Z,1008.6
2022-10-16T12:40:19.732Z,1008.6
2022-10-16T12:43:19.779Z,1008.5
2022-10-16T12:46:19.758Z,1008.6
2022-10-16T12:49:19.764Z,1008.5
2022-10-16T12:52:19.783Z,1008.6
2022-10-16T12:55:19.800Z,1008.5
2022-10-16T12:58:19.823Z,1008.6
2022-10-16T13:01:19.861Z,1008.6
2022-10-16T13:04:19.834Z,1008.6
2022-10-16T13:07:19.850Z,1008.7
2022-10-16T13:10:19.864Z,1008.7
2022-10-16T13:13:19.887Z,1008.7
2022-10-16T13:16:19.897Z,1008.7
2022-10-16T13:19:19.908Z,1008.7
2022-10-16T13:22:19.900Z,1008.8
2022-10-16T13:25:19.897Z,1008.8
2022-10-16T13:28:19.961Z,1008.9
2022-10-16T13:31:19.932Z,1008.8
2022-10-16T13:34:19.921Z,1008.9
2022-10-16T13:37:19.939Z,1008.9
2022-10-16T13:40:19.925Z,1008.9
2022-10-16T13:43:19.939Z,1009
2022-10-16T13:46:19.945Z,1009
2022-10-16T13:49:19.932Z,1009.1
2022-10-16T13:52:19.940Z,1009.1
2022-10-16T13:55:19.961Z,1009.1
2022-10-16T13:58:19.948Z,1009
2022-10-16T14:01:19.982Z,1009
2022-10-16T14:04:19.936Z,1009.1
2022-10-16T14:07:21.323Z,1009.1
2022-10-16T14:10:19.942Z,1009.1
2022-10-16T14:13:19.976Z,1009.1
2022-10-16T14:16:19.959Z,1009.1
2022-10-16T14:19:19.946Z,1009.3
2022-10-16T14:22:19.947Z,1009.3
2022-10-16T14:25:19.950Z,1009.3
2022-10-16T14:28:20.102Z,1009.3
2022-10-16T14:31:19.985Z,1009.3
2022-10-16T14:34:19.950Z,1009.3
2022-10-16T14:37:20.707Z,1009.4
2022-10-16T14:40:19.956Z,1009.4
2022-10-16T14:43:19.971Z,1009.4
2022-10-16T14:49:19.982Z,1009.5
2022-10-16T14:52:19.962Z,1009.6
2022-10-16T14:55:20.056Z,1009.6
2022-10-16T14:58:19.971Z,1009.6
2022-10-16T15:01:19.979Z,1009.6
2022-10-16T15:04:19.961Z,1009.7
2022-10-16T15:07:20.004Z,1009.6
2022-10-16T15:10:19.971Z,1009.8
2022-10-16T15:13:19.973Z,1009.7
2022-10-16T15:16:19.976Z,1009.7
2022-10-16T15:19:19.966Z,1009.8
2022-10-16T15:22:19.986Z,1009.8
2022-10-16T15:25:19.996Z,1009.8
2022-10-16T15:28:20.034Z,1009.7
2022-10-16T15:31:19.977Z,1009.8
2022-10-16T15:34:20.013Z,1009.8
2022-10-16T15:37:19.975Z,1009.8
2022-10-16T15:40:19.977Z,1009.9
2022-10-16T15:43:20.013Z,1010
2022-10-16T15:46:19.991Z,1009.9
2022-10-16T15:49:19.984Z,1010
2022-10-16T15:52:19.983Z,1010
2022-10-16T15:55:19.984Z,1010.1
2022-10-16T15:58:19.997Z,1010.1
2022-10-16T16:01:20.121Z,1010.3
2022-10-16T16:07:19.997Z,1010.2
2022-10-16T16:10:19.991Z,1010.3
2022-10-16T16:13:20.009Z,1010.3
2022-10-16T16:16:20.014Z,1010.4
2022-10-16T16:19:20.022Z,1010.3
2022-10-16T16:22:20.007Z,1010.4
2022-10-16T16:25:20.012Z,1010.4
2022-10-16T16:28:20.057Z,1010.5
2022-10-16T16:31:20.020Z,1010.5
2022-10-16T16:34:20.008Z,1010.4
2022-10-16T16:37:20.035Z,1010.4
2022-10-16T16:40:20.010Z,1010.4
2022-10-16T16:43:20.027Z,1010.5
2022-10-16T16:46:20.046Z,1010.5
2022-10-16T16:49:20.025Z,1010.5
2022-10-16T16:52:20.019Z,1010.7
2022-10-16T16:55:20.050Z,1010.7
2022-10-16T16:58:20.044Z,1010.7
2022-10-16T17:01:21.247Z,1010.8
2022-10-16T17:04:20.027Z,1011
2022-10-16T17:07:23.977Z,1010.9
2022-10-16T17:10:20.034Z,1010.7
2022-10-16T17:13:20.066Z,1010.9
2022-10-16T17:16:20.064Z,1011
2022-10-16T17:19:20.037Z,1011
2022-10-16T17:22:20.062Z,1011.2
2022-10-16T17:25:21.279Z,1011.1
2022-10-16T17:28:20.144Z,1011.2
2022-10-16T17:31:20.092Z,1011.4
2022-10-16T17:34:20.064Z,1011.5
2022-10-16T17:37:20.070Z,1011.4
2022-10-16T17:40:20.066Z,1011.3
2022-10-16T17:43:20.093Z,1011.3
2022-10-16T17:46:20.082Z,1011.3
2022-10-16T17:49:20.137Z,1011.3
2022-10-16T17:52:20.067Z,1011.4
2022-10-16T17:55:22.535Z,1011.4
2022-10-16T17:58:20.137Z,1011.6
2022-10-16T18:01:20.149Z,1011.6
2022-10-16T18:04:20.091Z,1011.7
2022-10-16T18:07:20.111Z,1011.6
2022-10-16T18:10:21.065Z,1011.7
2022-10-16T18:13:20.104Z,1011.7
2022-10-16T18:16:20.107Z,1011.8
2022-10-16T18:19:20.107Z,1011.7
2022-10-16T18:22:20.104Z,1011.7
2022-10-16T18:25:20.131Z,1011.8
2022-10-16T18:28:20.180Z,1011.9
2022-10-16T18:31:20.126Z,1011.9
2022-10-16T18:34:20.118Z,1011.9
2022-10-16T18:37:20.119Z,1011.8
2022-10-16T18:40:20.123Z,1011.7
2022-10-16T18:43:20.151Z,1011.9
2022-10-16T18:46:20.136Z,1012
2022-10-16T18:49:20.129Z,1012
2022-10-16T18:52:20.139Z,1012
2022-10-16T18:55:20.140Z,1012
2022-10-16T18:58:20.151Z,1012.1
2022-10-16T19:01:20.216Z,1012.2
2022-10-16T19:04:20.141Z,1012.3
2022-10-16T19:07:20.145Z,1012.3
2022-10-16T19:10:20.164Z,1012.2
2022-10-16T19:13:20.166Z,1012.1
2022-10-16T19:16:21.145Z,1012.1
2022-10-16T19:19:20.227Z,1012.1
2022-10-16T19:22:20.155Z,1012.2
2022-10-16T19:25:20.156Z,1012.1
2022-10-16T19:28:20.283Z,1012.1
2022-10-16T19:31:20.181Z,1012
2022-10-16T19:34:20.164Z,1012.1
2022-10-16T19:37:20.187Z,1012.1
2022-10-16T19:40:20.171Z,1012.1
2022-10-16T19:43:20.185Z,1012.2
2022-10-16T19:46:20.200Z,1012.2
2022-10-16T19:49:20.175Z,1012.3
2022-10-16T19:52:20.181Z,1012.4
2022-10-16T19:55:20.205Z,1012.3
2022-10-16T19:58:20.201Z,1012.4
2022-10-16T20:01:20.223Z,1012.4
2022-10-16T20:04:20.195Z,1012.4
2022-10-16T20:07:20.195Z,1012.3
2022-10-16T20:10:20.201Z,1012.4
2022-10-16T20:13:20.242Z,1012.4
2022-10-16T20:16:20.214Z,1012.5
2022-10-16T20:19:20.211Z,1012.5
2022-10-16T20:22:20.214Z,1012.5
2022-10-16T20:25:20.264Z,1012.6
2022-10-16T20:28:20.398Z,1012.8
2022-10-16T20:31:20.258Z,1012.8
2022-10-16T20:34:20.225Z,1012.9
2022-10-16T20:37:20.235Z,1012.8
2022-10-16T20:40:20.239Z,1012.8
2022-10-16T20:43:20.256Z,1012.8
2022-10-16T20:46:20.276Z,1012.9
2022-10-16T20:49:28.716Z,1012.9
2022-10-16T20:52:20.261Z,1012.9
2022-10-16T20:55:20.268Z,1012.9
2022-10-16T20:58:20.301Z,1012.9
2022-10-16T21:01:20.359Z,1012.9
2022-10-16T21:04:20.284Z,1013
2022-10-16T21:07:20.316Z,1013
2022-10-16T21:10:20.291Z,1012.9
2022-10-16T21:13:20.304Z,1013
2022-10-16T21:16:20.305Z,1013
2022-10-16T21:19:20.306Z,1013.1
2022-10-16T21:22:20.303Z,1013
2022-10-16T21:25:20.336Z,1013
2022-10-16T21:28:20.347Z,1013.1
2022-10-16T21:31:20.338Z,1013
2022-10-16T21:34:20.327Z,1013.1
2022-10-16T21:37:20.333Z,1013.1
2022-10-16T21:40:20.336Z,1013.1
2022-10-16T21:43:20.373Z,1013.1
2022-10-16T21:46:20.356Z,1013.1
2022-10-16T21:49:20.352Z,1013.2
2022-10-16T21:52:20.361Z,1013.1
2022-10-16T21:55:20.362Z,1013.2
2022-10-16T21:58:20.375Z,1013.2
2022-10-16T22:01:20.435Z,1013.1
2022-10-16T22:04:20.373Z,1013.1
2022-10-16T22:07:20.376Z,1013
2022-10-16T22:10:20.381Z,1013
2022-10-16T22:13:20.552Z,1013.1
2022-10-16T22:16:20.399Z,1013
2022-10-16T22:19:20.421Z,1013.1
2022-10-16T22:22:20.398Z,1013.1
2022-10-16T22:25:20.401Z,1013.1
2022-10-16T22:28:20.513Z,1013.2
2022-10-16T22:31:20.423Z,1013.3
2022-10-16T22:34:20.422Z,1013.4
2022-10-16T22:37:20.451Z,1013.3
2022-10-16T22:40:20.438Z,1013.2
2022-10-16T22:43:20.454Z,1013.1
2022-10-16T22:46:20.451Z,1013.2
2022-10-16T22:49:20.451Z,1013.2
2022-10-16T22:52:20.448Z,1013.3
2022-10-16T22:55:20.488Z,1013.2
2022-10-16T22:58:20.475Z,1013.2
2022-10-16T23:01:20.510Z,1013.1
2022-10-16T23:04:20.479Z,1013
2022-10-16T23:07:20.490Z,1013
2022-10-16T23:10:20.496Z,1013.2
2022-10-16T23:13:20.724Z,1013.2
2022-10-16T23:16:20.517Z,1013.2
2022-10-16T23:19:20.511Z,1013.2
2022-10-16T23:22:20.524Z,1013.2
2022-10-16T23:25:20.526Z,1013.2
2022-10-16T23:28:20.637Z,1013.1
2022-10-16T23:31:20.591Z,1013.1
2022-10-16T23:34:20.544Z,1013.1
2022-10-16T23:37:20.592Z,1013.1
2022-10-16T23:40:20.553Z,1013.1
2022-10-16T23:43:20.572Z,1013.1
2022-10-16T23:46:20.700Z,1013
2022-10-16T23:49:20.599Z,1012.9
2022-10-16T23:52:20.578Z,1012.9
2022-10-16T23:55:20.610Z,1012.9
2022-10-16T23:58:20.603Z,1012.8
